Time;durP1;ratioP1;P1;durP2;ratioP2;P2;SDS_P1;SDS_P2;PMS_P1;PMS_P2;Temp;Humidity;BMP_temperature;BMP_pressure;BME280_temperature;BME280_humidity;BME280_pressure;Samples;Min_cycle;Max_cycle;Signal;HPM_P1;HPM_P2
2021/10/13 00:02:24;;;;;;;2.95;1.77;;;;;;;6.52;100.00;101054.81;5226343;28;20085;-80
2021/10/13 00:04:55;;;;;;;4.97;1.63;;;;;;;6.42;100.00;101064.44;5218969;28;20335;-81
2021/10/13 00:07:25;;;;;;;5.05;1.70;;;;;;;6.51;100.00;101066.97;5210865;28;20021;-79
2021/10/13 00:09:57;;;;;;;3.35;1.42;;;;;;;6.46;100.00;101067.88;5196711;28;20072;-80
2021/10/13 00:12:28;;;;;;;3.08;1.20;;;;;;;6.45;100.00;101066.16;5202835;28;20028;-80
2021/10/13 00:14:58;;;;;;;1.73;1.00;;;;;;;6.33;100.00;101063.69;5206558;28;20025;-80
2021/10/13 00:17:29;;;;;;;4.18;1.45;;;;;;;6.20;100.00;101072.47;5197131;28;20037;-80
2021/10/13 00:20:02;;;;;;;2.33;1.25;;;;;;;6.31;100.00;101078.41;5222142;28;20036;-79
2021/10/13 00:22:32;;;;;;;5.57;1.30;;;;;;;6.14;100.00;101080.31;5220805;28;20017;-80
2021/10/13 00:25:03;;;;;;;2.80;1.25;;;;;;;6.15;100.00;101082.91;5210696;28;20028;-79
2021/10/13 00:27:34;;;;;;;4.10;1.45;;;;;;;6.32;100.00;101081.00;5218949;28;20025;-80
2021/10/13 00:30:05;;;;;;;2.40;1.30;;;;;;;6.52;100.00;101075.59;5216177;28;20036;-80
2021/10/13 00:32:35;;;;;;;2.67;1.50;;;;;;;6.46;100.00;101075.66;5195259;28;20563;-81
2021/10/13 00:35:06;;;;;;;4.45;1.63;;;;;;;6.45;100.00;101076.53;5242147;23;20040;-80
2021/10/13 00:37:36;;;;;;;4.53;1.50;;;;;;;6.46;100.00;101080.84;5268044;28;20032;-80
2021/10/13 00:40:08;;;;;;;4.68;1.70;;;;;;;6.24;100.00;101087.16;5263677;28;20024;-81
2021/10/13 00:42:38;;;;;;;3.80;1.83;;;;;;;6.36;100.00;101085.28;5268018;28;20020;-79
2021/10/13 00:45:09;;;;;;;4.60;2.70;;;;;;;6.59;100.00;101087.63;5269533;28;20027;-81
2021/10/13 00:47:39;;;;;;;6.03;2.90;;;;;;;6.74;100.00;101092.66;5268802;28;20444;-81
2021/10/13 00:50:11;;;;;;;9.55;4.43;;;;;;;7.03;100.00;101098.34;5269189;28;20044;-81
2021/10/13 00:52:43;;;;;;;10.13;4.93;;;;;;;7.25;100.00;101105.84;5260345;28;20116;-80
2021/10/13 00:55:21;;;;;;;10.85;5.20;;;;;;;7.33;100.00;101110.03;5258317;28;20024;-80
2021/10/13 00:57:52;;;;;;;8.40;4.80;;;;;;;7.34;100.00;101106.56;5269345;28;20024;-81
2021/10/13 01:00:23;;;;;;;10.32;5.00;;;;;;;7.54;100.00;101106.28;5269403;28;20444;-80
2021/10/13 01:03:02;;;;;;;8.82;5.15;;;;;;;7.62;100.00;101107.88;5268982;28;20028;-80
2021/10/13 01:05:36;;;;;;;12.82;6.32;;;;;;;7.68;100.00;101104.34;5268201;28;20487;-80
2021/10/13 01:08:20;;;;;;;9.48;5.55;;;;;;;7.45;100.00;101119.41;5268449;28;20051;-80
2021/10/13 01:11:08;;;;;;;14.73;6.60;;;;;;;7.55;100.00;101108.84;5290330;28;20028;-80
2021/10/13 01:14:00;;;;;;;10.05;6.43;;;;;;;7.52;100.00;101116.69;5265395;28;20089;-79
2021/10/13 01:16:49;;;;;;;14.30;7.10;;;;;;;7.60;100.00;101104.47;5259294;28;20038;-81
2021/10/13 01:19:26;;;;;;;14.23;7.53;;;;;;;7.66;100.00;101108.72;5258322;28;20078;-81
2021/10/13 01:22:06;;;;;;;13.35;7.63;;;;;;;7.51;100.00;101104.56;5267702;28;20036;-81
2021/10/13 01:24:58;;;;;;;13.88;8.10;;;;;;;7.69;100.00;101111.25;5264568;28;20020;-81
2021/10/13 01:27:28;;;;;;;13.85;7.43;;;;;;;7.61;100.00;101110.50;5264387;28;20032;-81
2021/10/13 01:30:01;;;;;;;13.43;7.30;;;;;;;7.59;100.00;101120.94;5266536;28;20027;-81
2021/10/13 01:32:36;;;;;;;11.75;7.30;;;;;;;7.61;100.00;101126.97;5266496;28;20282;-81
2021/10/13 01:35:08;;;;;;;13.68;7.10;;;;;;;7.65;100.00;101126.03;5264256;28;20024;-81
2021/10/13 01:37:45;;;;;;;11.52;7.25;;;;;;;7.36;100.00;101125.59;5265981;28;20062;-81
2021/10/13 01:40:19;;;;;;;18.45;7.25;;;;;;;7.25;100.00;101128.38;5262320;28;20077;-81
2021/10/13 01:42:52;;;;;;;12.30;7.47;;;;;;;7.52;100.00;101129.69;5269000;28;20407;-81
2021/10/13 01:45:23;;;;;;;13.52;7.93;;;;;;;7.61;100.00;101121.78;5271068;28;20032;-81
2021/10/13 01:47:56;;;;;;;11.88;7.10;;;;;;;7.55;100.00;101131.41;5268808;28;20398;-81
2021/10/13 01:50:26;;;;;;;15.02;7.57;;;;;;;7.69;100.00;101135.50;5271232;28;20036;-81
2021/10/13 01:52:58;;;;;;;13.68;7.70;;;;;;;7.49;100.00;101139.31;5271013;28;20077;-81
2021/10/13 01:55:30;;;;;;;16.70;7.93;;;;;;;7.44;100.00;101136.78;5269532;28;20054;-81
2021/10/13 01:58:01;;;;;;;13.35;8.10;;;;;;;7.50;100.00;101141.03;5267721;28;20062;-81
2021/10/13 02:00:32;;;;;;;14.90;8.23;;;;;;;7.44;100.00;101134.16;5268959;28;20020;-81
2021/10/13 02:03:06;;;;;;;15.60;8.38;;;;;;;7.40;100.00;101136.81;5270074;28;20031;-81
2021/10/13 02:05:38;;;;;;;12.90;8.15;;;;;;;7.46;100.00;101136.72;5269827;28;20038;-81
2021/10/13 02:08:09;;;;;;;15.05;8.55;;;;;;;7.36;100.00;101133.41;5269072;28;20034;-81
2021/10/13 02:10:40;;;;;;;13.48;8.27;;;;;;;7.54;100.00;101134.91;5268986;28;20031;-81
2021/10/13 02:13:12;;;;;;;14.48;8.45;;;;;;;7.31;100.00;101140.41;5268839;28;20035;-81
2021/10/13 02:15:45;;;;;;;13.23;8.13;;;;;;;7.32;100.00;101142.13;5268137;28;20032;-81
2021/10/13 02:18:26;;;;;;;13.98;8.18;;;;;;;7.32;100.00;101138.69;5266359;28;20027;-81
2021/10/13 02:20:58;;;;;;;13.38;8.43;;;;;;;7.20;100.00;101143.16;5268875;28;20114;-81
2021/10/13 02:23:33;;;;;;;16.20;9.05;;;;;;;7.22;100.00;101135.31;5269620;28;20051;-81
2021/10/13 02:26:21;;;;;;;14.23;8.77;;;;;;;7.39;100.00;101135.09;5267897;28;20031;-81
2021/10/13 02:28:58;;;;;;;14.88;9.02;;;;;;;7.29;100.00;101134.38;5269776;28;20028;-81
2021/10/13 02:31:28;;;;;;;15.02;9.05;;;;;;;7.54;100.00;101138.34;5269964;28;20031;-81
2021/10/13 02:33:58;;;;;;;14.10;9.27;;;;;;;7.38;100.00;101143.78;5268680;28;20047;-81
2021/10/13 02:36:29;;;;;;;18.13;9.77;;;;;;;7.51;100.00;101146.19;5267325;28;20402;-81
2021/10/13 02:38:59;;;;;;;17.20;9.35;;;;;;;7.58;100.00;101142.63;5268580;28;20048;-81
2021/10/13 02:41:30;;;;;;;14.55;8.77;;;;;;;7.58;100.00;101147.84;5268621;28;20024;-81
2021/10/13 02:44:03;;;;;;;15.48;9.40;;;;;;;7.67;100.00;101152.88;5268027;28;20114;-81
2021/10/13 02:46:41;;;;;;;15.50;9.07;;;;;;;7.58;100.00;101158.25;5270305;28;20677;-81
2021/10/13 02:49:38;;;;;;;15.32;9.23;;;;;;;7.53;100.00;101165.22;5268228;28;20685;-81
2021/10/13 02:52:26;;;;;;;18.85;9.23;;;;;;;7.53;100.00;101154.81;5252502;28;20028;-81
2021/10/13 02:55:08;;;;;;;15.80;9.10;;;;;;;7.56;100.00;101152.16;5266318;28;20111;-81
2021/10/13 02:57:43;;;;;;;17.42;9.82;;;;;;;7.58;100.00;101153.03;5268142;28;20106;-81
2021/10/13 03:00:14;;;;;;;15.77;9.15;;;;;;;7.51;100.00;101150.53;5267256;28;20016;-81
2021/10/13 03:02:57;;;;;;;17.02;9.10;;;;;;;7.48;100.00;101154.03;5265308;28;20028;-81
2021/10/13 03:05:29;;;;;;;18.38;9.38;;;;;;;7.57;100.00;101166.94;5268391;28;20024;-81
2021/10/13 03:08:02;;;;;;;16.90;9.98;;;;;;;7.53;100.00;101160.03;5268061;28;20034;-81
2021/10/13 03:10:34;;;;;;;16.65;9.82;;;;;;;7.38;100.00;101169.78;5268744;28;20072;-81
2021/10/13 03:13:07;;;;;;;15.85;8.93;;;;;;;7.52;100.00;101160.91;5268391;28;20024;-81
2021/10/13 03:15:43;;;;;;;17.63;10.00;;;;;;;7.63;100.00;101172.03;5267583;28;20107;-81
2021/10/13 03:18:15;;;;;;;19.83;10.25;;;;;;;7.65;100.00;101180.66;5264526;28;20039;-81
2021/10/13 03:20:49;;;;;;;18.63;10.07;;;;;;;7.51;100.00;101187.78;5268913;28;20055;-82
2021/10/13 03:23:21;;;;;;;21.65;11.23;;;;;;;7.59;100.00;101178.16;5267473;28;20055;-82
2021/10/13 03:25:51;;;;;;;20.08;10.45;;;;;;;7.46;100.00;101184.41;5267212;28;20046;-81
2021/10/13 03:28:22;;;;;;;19.20;10.07;;;;;;;7.58;100.00;101184.25;5269062;28;20035;-81
2021/10/13 03:30:52;;;;;;;18.25;10.85;;;;;;;7.45;100.00;101185.28;5266325;28;20483;-81
2021/10/13 03:33:22;;;;;;;17.48;10.20;;;;;;;7.47;100.00;101186.13;5267730;28;20055;-81
2021/10/13 03:35:53;;;;;;;16.85;10.30;;;;;;;7.40;100.00;101187.09;5267644;28;20028;-81
2021/10/13 03:38:24;;;;;;;20.17;10.73;;;;;;;7.34;100.00;101187.16;5267438;28;20034;-81
2021/10/13 03:40:54;;;;;;;18.73;10.52;;;;;;;7.42;100.00;101192.25;5268759;28;20450;-81
2021/10/13 03:43:24;;;;;;;20.13;10.63;;;;;;;7.32;100.00;101194.13;5267022;28;20031;-81
2021/10/13 03:45:55;;;;;;;17.58;10.40;;;;;;;7.32;100.00;101188.91;5268278;28;20047;-81
2021/10/13 03:48:30;;;;;;;24.42;11.07;;;;;;;7.44;100.00;101190.50;5267057;28;20035;-81
2021/10/13 03:51:00;;;;;;;20.58;11.57;;;;;;;7.27;100.00;101189.84;5267160;28;20027;-83
2021/10/13 03:53:30;;;;;;;23.70;12.13;;;;;;;7.49;100.00;101197.38;5265714;28;20487;-81
2021/10/13 03:56:01;;;;;;;23.20;12.10;;;;;;;7.47;100.00;101201.72;5266923;28;20085;-81
2021/10/13 03:58:31;;;;;;;22.27;12.90;;;;;;;7.42;100.00;101202.66;5264081;28;20043;-81
2021/10/13 04:01:01;;;;;;;24.30;12.60;;;;;;;7.51;100.00;101198.19;5266798;28;20058;-81
2021/10/13 04:03:32;;;;;;;23.63;12.70;;;;;;;7.39;100.00;101213.94;5266655;28;20399;-82
2021/10/13 04:06:02;;;;;;;24.27;13.10;;;;;;;7.40;100.00;101207.03;5266721;28;20040;-81
2021/10/13 04:08:32;;;;;;;24.55;13.18;;;;;;;7.49;100.00;101215.56;5266678;28;20436;-81
2021/10/13 04:11:03;;;;;;;23.58;13.20;;;;;;;7.28;100.00;101202.84;5265718;28;20487;-81
2021/10/13 04:13:33;;;;;;;24.30;14.02;;;;;;;7.41;100.00;101209.63;5266289;28;20466;-81
2021/10/13 04:16:04;;;;;;;27.45;13.77;;;;;;;7.33;100.00;101211.44;5265502;28;20024;-81
2021/10/13 04:18:34;;;;;;;26.50;13.60;;;;;;;7.53;100.00;101219.00;5268351;28;20066;-82
2021/10/13 04:21:04;;;;;;;25.65;13.45;;;;;;;7.42;100.00;101221.75;5268362;28;20027;-81
2021/10/13 04:23:35;;;;;;;26.90;12.95;;;;;;;7.45;100.00;101219.09;5265562;28;20024;-81
2021/10/13 04:26:05;;;;;;;31.17;13.40;;;;;;;7.25;100.00;101224.56;5266460;28;20077;-81
2021/10/13 04:28:35;;;;;;;24.88;12.52;;;;;;;7.47;100.00;101227.72;5264884;28;20572;-82
2021/10/13 04:31:05;;;;;;;22.88;12.63;;;;;;;7.62;100.00;101232.75;5265946;28;20032;-81
2021/10/13 04:33:36;;;;;;;29.08;12.15;;;;;;;7.41;100.00;101232.16;5267365;28;20020;-81
2021/10/13 04:36:06;;;;;;;23.88;11.57;;;;;;;7.43;100.00;101239.06;5263070;28;20035;-81
2021/10/13 04:38:36;;;;;;;24.88;12.23;;;;;;;7.57;100.00;101231.94;5265986;28;20105;-82
2021/10/13 04:41:07;;;;;;;24.50;12.18;;;;;;;7.52;100.00;101241.53;5266099;28;20024;-81
2021/10/13 04:43:37;;;;;;;22.73;11.50;;;;;;;7.57;100.00;101238.88;5267236;28;20450;-81
2021/10/13 04:46:07;;;;;;;23.67;11.80;;;;;;;7.49;100.00;101238.13;5265696;28;20035;-81
2021/10/13 04:48:37;;;;;;;23.95;11.00;;;;;;;7.54;100.00;101234.56;5262147;28;20391;-81
2021/10/13 04:51:08;;;;;;;21.45;11.23;;;;;;;7.31;100.00;101240.94;5266030;28;20026;-82
2021/10/13 04:53:38;;;;;;;23.27;10.73;;;;;;;7.38;100.00;101240.84;5266234;28;20047;-82
2021/10/13 04:56:08;;;;;;;19.52;10.77;;;;;;;7.32;100.00;101243.50;5262019;28;20023;-81
2021/10/13 04:58:39;;;;;;;19.45;9.65;;;;;;;7.21;100.00;101241.94;5265146;28;20028;-81
2021/10/13 05:01:09;;;;;;;22.83;10.48;;;;;;;7.13;100.00;101240.28;5266926;28;20020;-81
2021/10/13 05:03:39;;;;;;;21.50;10.70;;;;;;;7.34;100.00;101239.16;5267241;28;20423;-81
2021/10/13 05:06:09;;;;;;;21.23;10.43;;;;;;;7.20;100.00;101241.94;5263543;28;20081;-81
2021/10/13 05:08:40;;;;;;;20.75;9.98;;;;;;;7.38;100.00;101243.44;5264552;28;20031;-81
2021/10/13 05:11:10;;;;;;;25.48;10.98;;;;;;;7.34;100.00;101235.72;5264552;28;20076;-81
2021/10/13 05:13:40;;;;;;;25.02;11.52;;;;;;;7.38;100.00;101238.22;5265209;28;20644;-81
2021/10/13 05:16:11;;;;;;;22.25;11.00;;;;;;;7.25;100.00;101243.59;5266189;28;20024;-82
2021/10/13 05:18:41;;;;;;;23.88;11.75;;;;;;;7.29;100.00;101240.97;5264843;28;20028;-82
2021/10/13 05:21:11;;;;;;;24.77;11.55;;;;;;;7.35;100.00;101247.84;5268049;28;20023;-81
2021/10/13 05:23:42;;;;;;;23.65;11.27;;;;;;;7.33;100.00;101239.19;5267563;28;20051;-81
2021/10/13 05:26:12;;;;;;;25.88;12.45;;;;;;;7.44;100.00;101237.31;5268430;28;20024;-82
2021/10/13 05:28:42;;;;;;;22.45;11.95;;;;;;;7.39;100.00;101239.94;5261595;28;20024;-82
2021/10/13 05:31:12;;;;;;;24.23;12.15;;;;;;;7.39;100.00;101239.94;5260881;28;20028;-82
2021/10/13 05:33:43;;;;;;;26.08;12.35;;;;;;;7.35;100.00;101248.69;5269909;28;20522;-82
2021/10/13 05:36:14;;;;;;;21.05;11.05;;;;;;;7.37;100.00;101239.13;5265356;28;20055;-82
2021/10/13 05:38:44;;;;;;;22.63;11.55;;;;;;;7.43;100.00;101241.66;5269415;28;20483;-83
2021/10/13 05:41:14;;;;;;;18.13;10.40;;;;;;;7.35;100.00;101248.69;5266176;28;20111;-82
2021/10/13 05:43:45;;;;;;;21.42;11.35;;;;;;;7.51;100.00;101246.78;5270518;28;20502;-82
2021/10/13 05:46:15;;;;;;;20.27;11.02;;;;;;;7.48;100.00;101239.84;5263042;28;20028;-82
2021/10/13 05:48:46;;;;;;;17.60;10.20;;;;;;;7.53;100.00;101245.00;5264440;28;20118;-83
2021/10/13 05:51:17;;;;;;;16.27;9.38;;;;;;;7.45;100.00;101242.50;5266824;28;20023;-82
2021/10/13 05:53:47;;;;;;;17.02;9.40;;;;;;;7.39;100.00;101249.50;5268304;28;20028;-82
2021/10/13 05:56:17;;;;;;;17.88;9.30;;;;;;;7.50;100.00;101242.44;5267317;28;20042;-82
2021/10/13 05:58:51;;;;;;;17.23;9.95;;;;;;;7.64;100.00;101249.19;5268101;28;20615;-82
2021/10/13 06:01:22;;;;;;;19.75;10.18;;;;;;;7.45;100.00;101268.50;5265537;28;20023;-82
2021/10/13 06:03:52;;;;;;;20.48;10.50;;;;;;;7.62;100.00;101263.97;5266140;28;20031;-82
2021/10/13 06:06:22;;;;;;;19.67;10.60;;;;;;;7.74;100.00;101261.16;5267977;28;20274;-82
2021/10/13 06:08:53;;;;;;;20.35;10.05;;;;;;;7.48;100.00;101265.88;5268986;28;20032;-83
2021/10/13 06:11:23;;;;;;;19.23;10.15;;;;;;;7.43;100.00;101278.06;5265073;28;20092;-82
2021/10/13 06:13:53;;;;;;;17.95;10.27;;;;;;;7.53;100.00;101273.63;5267425;28;20048;-82
2021/10/13 06:16:24;;;;;;;20.45;11.25;;;;;;;7.58;100.00;101272.69;5267896;28;20027;-82
2021/10/13 06:18:54;;;;;;;21.98;11.25;;;;;;;7.59;100.00;101282.22;5265565;28;20028;-82
2021/10/13 06:21:24;;;;;;;19.98;10.48;;;;;;;7.69;100.00;101283.78;5265359;28;20016;-82
2021/10/13 06:23:55;;;;;;;21.17;10.90;;;;;;;7.66;100.00;101283.84;5259469;28;20020;-83
2021/10/13 06:26:25;;;;;;;23.08;10.80;;;;;;;7.76;100.00;101292.38;5263207;28;20561;-82
2021/10/13 06:28:55;;;;;;;21.05;11.38;;;;;;;7.91;100.00;101284.38;5266078;28;20047;-82
2021/10/13 06:31:26;;;;;;;19.92;10.90;;;;;;;8.01;100.00;101292.03;5261146;28;20042;-82
2021/10/13 06:36:32;;;;;;;18.83;10.57;;;;;;;7.66;100.00;101291.66;5246431;28;20041;-83
2021/10/13 06:39:03;;;;;;;18.38;9.93;;;;;;;7.84;100.00;101303.56;5250413;28;20029;-83
2021/10/13 06:41:33;;;;;;;19.60;9.48;;;;;;;7.84;100.00;101306.19;5248384;28;20390;-82
2021/10/13 06:44:03;;;;;;;19.50;9.90;;;;;;;7.80;100.00;101312.28;5244429;28;20037;-83
2021/10/13 06:46:34;;;;;;;18.23;9.10;;;;;;;7.70;100.00;101313.28;5247850;28;20499;-82
2021/10/13 06:49:04;;;;;;;16.98;9.20;;;;;;;7.74;100.00;101315.81;5249183;28;20545;-82
2021/10/13 06:51:35;;;;;;;17.70;8.90;;;;;;;7.73;100.00;101323.66;5247775;28;20032;-82
2021/10/13 06:54:06;;;;;;;16.90;8.40;;;;;;;7.75;100.00;101317.56;5246045;28;20025;-82
2021/10/13 06:56:36;;;;;;;16.05;8.30;;;;;;;7.73;100.00;101323.66;5246019;28;20028;-82
2021/10/13 06:59:06;;;;;;;14.05;8.13;;;;;;;7.73;100.00;101329.69;5251148;28;20532;-82
2021/10/13 07:01:36;;;;;;;17.00;8.75;;;;;;;7.65;100.00;101323.75;5247520;28;20022;-83
2021/10/13 07:04:07;;;;;;;17.92;8.93;;;;;;;7.99;100.00;101324.16;5245936;28;20498;-82
2021/10/13 07:06:37;;;;;;;20.10;10.00;;;;;;;7.92;100.00;101328.63;5250659;28;20027;-82
2021/10/13 07:09:07;;;;;;;21.05;9.50;;;;;;;8.06;100.00;101324.06;5249243;28;20021;-83
2021/10/13 07:11:38;;;;;;;16.27;8.85;;;;;;;8.03;100.00;101329.31;5247257;28;20021;-82
2021/10/13 07:14:09;;;;;;;16.30;8.85;;;;;;;8.19;100.00;101330.88;5245536;28;20045;-83
2021/10/13 07:16:39;;;;;;;16.33;8.45;;;;;;;8.01;100.00;101323.28;5244233;28;20032;-82
2021/10/13 07:19:09;;;;;;;17.13;8.95;;;;;;;8.08;100.00;101326.66;5245199;28;20024;-82
2021/10/13 07:21:40;;;;;;;15.75;8.93;;;;;;;8.14;100.00;101332.66;5244497;28;20044;-82
2021/10/13 07:24:10;;;;;;;16.77;9.15;;;;;;;8.32;100.00;101337.63;5246473;28;20278;-82
2021/10/13 07:26:44;;;;;;;18.13;8.57;;;;;;;8.31;100.00;101329.81;5247104;28;20576;-82
2021/10/13 07:29:14;;;;;;;16.05;9.02;;;;;;;8.36;100.00;101325.44;5247821;28;20028;-82
2021/10/13 07:31:45;;;;;;;16.30;9.23;;;;;;;8.43;100.00;101324.44;5245921;28;20034;-82
2021/10/13 07:34:15;;;;;;;15.80;8.82;;;;;;;8.45;100.00;101333.97;5245436;28;20395;-82
2021/10/13 07:36:45;;;;;;;14.57;8.35;;;;;;;8.34;100.00;101333.25;5248621;28;20030;-83
2021/10/13 07:39:16;;;;;;;15.77;8.43;;;;;;;8.36;100.00;101343.66;5243307;28;20039;-83
2021/10/13 07:41:46;;;;;;;16.05;8.35;;;;;;;8.32;100.00;101335.03;5243604;28;20035;-83
2021/10/13 07:44:16;;;;;;;17.15;7.88;;;;;;;8.38;100.00;101345.34;5245497;28;20085;-82
2021/10/13 07:46:48;;;;;;;14.43;8.30;;;;;;;8.42;100.00;101340.97;5240479;28;20143;-83
2021/10/13 07:49:18;;;;;;;15.85;8.60;;;;;;;8.77;100.00;101341.28;5243651;28;20084;-82
2021/10/13 07:51:49;;;;;;;11.70;7.65;;;;;;;8.61;100.00;101345.00;5245527;28;20028;-82
2021/10/13 07:54:20;;;;;;;11.63;7.38;;;;;;;8.69;100.00;101349.22;5245725;28;20020;-83
2021/10/13 07:56:51;;;;;;;13.68;8.10;;;;;;;8.82;100.00;101345.53;5243855;28;20206;-82
2021/10/13 07:59:21;;;;;;;15.00;8.00;;;;;;;9.00;100.00;101350.44;5245496;28;20617;-82
2021/10/13 08:01:51;;;;;;;14.70;7.85;;;;;;;9.06;100.00;101354.72;5244719;28;20058;-83
2021/10/13 08:04:22;;;;;;;10.80;6.78;;;;;;;9.06;100.00;101359.91;5243513;28;20058;-83
2021/10/13 08:06:53;;;;;;;10.93;7.13;;;;;;;8.90;100.00;101367.13;5244492;28;20036;-82
2021/10/13 08:09:23;;;;;;;11.90;7.03;;;;;;;8.94;100.00;101368.81;5246814;28;20146;-82
2021/10/13 08:11:54;;;;;;;12.85;7.28;;;;;;;9.13;100.00;101369.34;5244133;28;20025;-83
2021/10/13 08:14:24;;;;;;;13.93;7.70;;;;;;;8.97;100.00;101360.94;5244435;28;20020;-82
2021/10/13 08:16:57;;;;;;;12.73;7.97;;;;;;;8.87;100.00;101375.00;5242876;28;20029;-83
2021/10/13 08:19:28;;;;;;;13.13;8.18;;;;;;;8.73;100.00;101370.88;5244019;28;20032;-82
2021/10/13 08:21:59;;;;;;;13.60;7.50;;;;;;;9.02;100.00;101379.97;5246116;28;20024;-82
2021/10/13 08:24:29;;;;;;;14.45;7.75;;;;;;;9.66;100.00;101377.94;5244647;28;20028;-81
2021/10/13 08:27:02;;;;;;;13.35;7.88;;;;;;;9.90;100.00;101377.44;5246906;28;20031;-83
2021/10/13 08:29:33;;;;;;;11.68;7.65;;;;;;;9.77;100.00;101373.34;5247514;28;20036;-82
2021/10/13 08:32:04;;;;;;;10.35;6.82;;;;;;;9.74;100.00;101379.50;5246504;28;20036;-81
2021/10/13 08:34:35;;;;;;;13.85;7.45;;;;;;;10.03;100.00;101382.41;5251310;28;20063;-81
2021/10/13 08:37:06;;;;;;;11.93;7.85;;;;;;;9.83;100.00;101386.31;5254363;28;20020;-81
2021/10/13 08:39:37;;;;;;;13.90;8.48;;;;;;;9.67;100.00;101393.56;5249912;28;20104;-81
2021/10/13 08:42:07;;;;;;;13.60;8.77;;;;;;;9.66;100.00;101391.84;5251812;28;20040;-81
2021/10/13 08:44:42;;;;;;;13.95;9.07;;;;;;;9.41;100.00;101380.16;5250479;28;20024;-81
2021/10/13 08:47:13;;;;;;;15.45;9.70;;;;;;;9.45;100.00;101391.41;5247258;28;20081;-81
2021/10/13 08:49:43;;;;;;;16.10;9.10;;;;;;;9.53;100.00;101392.97;5247274;28;20036;-81
2021/10/13 08:52:14;;;;;;;18.17;9.27;;;;;;;9.75;100.00;101391.69;5252002;28;20051;-81
2021/10/13 08:54:45;;;;;;;14.13;8.13;;;;;;;9.74;100.00;101389.97;5257803;28;20029;-81
2021/10/13 08:57:21;;;;;;;14.85;8.10;;;;;;;9.45;100.00;101396.63;5252514;28;20027;-81
2021/10/13 08:59:52;;;;;;;13.82;8.20;;;;;;;9.75;100.00;101391.69;5256906;28;20429;-81
2021/10/13 09:02:41;;;;;;;15.98;8.57;;;;;;;10.15;100.00;101391.78;5251959;28;20039;-81
2021/10/13 09:05:11;;;;;;;11.75;7.78;;;;;;;9.88;100.00;101387.06;5251020;28;20016;-81
2021/10/13 09:07:52;;;;;;;16.63;9.35;;;;;;;10.13;100.00;101388.34;5258082;28;20054;-81
2021/10/13 09:10:30;;;;;;;15.35;8.70;;;;;;;10.00;100.00;101397.28;5249479;28;20479;-81
2021/10/13 09:13:19;;;;;;;36.50;14.95;;;;;;;9.84;100.00;101395.84;5252574;28;20131;-80
2021/10/13 09:15:52;;;;;;;20.88;9.73;;;;;;;10.02;100.00;101392.91;5250059;28;20066;-81
2021/10/13 09:18:23;;;;;;;12.55;7.80;;;;;;;10.00;100.00;101392.06;5252007;28;20033;-81
2021/10/13 09:20:54;;;;;;;13.68;8.10;;;;;;;10.06;100.00;101399.78;5249667;28;20031;-81
2021/10/13 09:23:29;;;;;;;14.00;8.38;;;;;;;10.04;100.00;101396.34;5251562;28;20028;-81
2021/10/13 09:26:11;;;;;;;12.50;7.70;;;;;;;10.05;100.00;101400.69;5255225;28;20036;-81
2021/10/13 09:28:57;;;;;;;13.15;7.97;;;;;;;10.27;100.00;101405.44;5262269;28;20523;-81
2021/10/13 09:31:29;;;;;;;10.05;6.72;;;;;;;10.33;100.00;101407.06;5254120;28;20042;-81
2021/10/13 09:34:05;;;;;;;13.52;7.85;;;;;;;10.69;100.00;101411.47;5254964;28;20088;-81
2021/10/13 09:36:38;;;;;;;12.48;7.90;;;;;;;10.73;100.00;101413.13;5259935;28;20031;-81
2021/10/13 09:39:19;;;;;;;11.23;7.13;;;;;;;11.01;100.00;101408.97;5255883;28;20024;-81
2021/10/13 09:41:57;;;;;;;12.15;7.05;;;;;;;10.99;100.00;101418.63;5246754;28;20106;-81
2021/10/13 09:44:40;;;;;;;11.40;7.20;;;;;;;11.21;100.00;101411.06;5253685;28;20024;-81
2021/10/13 09:47:12;;;;;;;10.25;6.95;;;;;;;11.16;99.59;101419.91;5253982;28;20431;-81
2021/10/13 09:49:45;;;;;;;12.98;6.65;;;;;;;11.03;100.00;101418.50;5247794;28;20039;-81
2021/10/13 09:52:18;;;;;;;10.02;6.90;;;;;;;11.08;100.00;101412.25;5249279;28;20020;-81
2021/10/13 09:55:08;;;;;;;9.95;6.35;;;;;;;11.44;99.76;101410.50;5257451;28;20138;-81
2021/10/13 09:57:46;;;;;;;9.93;6.80;;;;;;;11.30;99.23;101412.59;5261104;28;20024;-81
2021/10/13 10:00:26;;;;;;;10.23;5.75;;;;;;;11.76;97.67;101402.69;5247970;28;20035;-81
2021/10/13 10:02:59;;;;;;;8.15;5.88;;;;;;;11.47;97.09;101406.00;5249380;28;20039;-81
2021/10/13 10:05:32;;;;;;;12.02;8.00;;;;;;;11.63;98.50;101402.13;5254274;28;20414;-81
2021/10/13 10:08:07;;;;;;;11.73;7.15;;;;;;;11.77;98.77;101397.38;5251538;28;20047;-81
2021/10/13 10:10:58;;;;;;;;;;;;;;;11.91;97.55;101397.00;5254310;28;20031;-81
2021/10/13 10:13:42;;;;;;;9.45;6.03;;;;;;;12.26;96.38;101384.63;5251008;28;19954;-81
2021/10/13 10:16:12;;;;;;;11.38;5.97;;;;;;;12.27;94.89;101394.19;5253030;28;20089;-81
2021/10/13 10:18:42;;;;;;;11.50;5.88;;;;;;;12.36;94.74;101401.81;5253603;28;20028;-81
2021/10/13 10:21:19;;;;;;;6.35;4.32;;;;;;;12.75;94.21;101383.97;5251363;28;20027;-81
2021/10/13 10:23:58;;;;;;;11.60;5.00;;;;;;;12.84;93.81;101392.41;5252930;28;20096;-81
2021/10/13 10:26:31;;;;;;;13.75;6.80;;;;;;;12.91;93.28;101386.91;5255225;28;20024;-81
2021/10/13 10:29:15;;;;;;;7.25;3.80;;;;;;;12.83;91.10;101381.97;5260139;28;20046;-81
2021/10/13 10:31:57;;;;;;;8.68;3.78;;;;;;;12.73;93.12;101389.28;5250750;28;20025;-81
2021/10/13 10:34:27;;;;;;;6.25;3.75;;;;;;;12.59;94.69;101387.97;5253979;28;20434;-81
2021/10/13 10:36:58;;;;;;;13.25;7.75;;;;;;;12.75;94.08;101390.09;5256036;28;20031;-81
2021/10/13 10:39:55;;;;;;;7.73;4.37;;;;;;;12.64;93.37;101389.56;5254933;28;20095;-81
2021/10/13 10:42:52;;;;;;;6.72;5.07;;;;;;;12.78;92.28;101383.91;5254506;28;20313;-81
2021/10/13 10:45:28;;;;;;;7.28;3.78;;;;;;;12.88;91.42;101380.94;5251975;28;20048;-81
2021/10/13 10:47:58;;;;;;;4.55;3.08;;;;;;;12.80;91.70;101377.69;5254039;28;20024;-81
2021/10/13 10:50:38;;;;;;;5.00;3.40;;;;;;;12.81;91.28;101378.56;5255952;28;20035;-81
2021/10/13 10:53:18;;;;;;;7.43;3.97;;;;;;;12.63;93.01;101379.97;5255603;28;20362;-81
2021/10/13 10:55:50;;;;;;;5.88;3.50;;;;;;;12.78;91.00;101384.75;5250391;28;20036;-81
2021/10/13 10:58:32;;;;;;;6.40;3.33;;;;;;;12.73;91.17;101381.41;5251813;28;20024;-81
2021/10/13 11:01:15;;;;;;;5.30;2.63;;;;;;;12.59;91.62;101380.09;5257470;28;20143;-81
2021/10/13 11:03:45;;;;;;;6.15;3.58;;;;;;;12.69;90.81;101385.06;5247270;28;20135;-81
2021/10/13 11:06:17;;;;;;;6.55;4.32;;;;;;;12.72;91.16;101381.44;5251805;28;20047;-81
2021/10/13 11:08:55;;;;;;;5.35;2.85;;;;;;;12.79;92.05;101388.25;5257884;28;20116;-81
2021/10/13 11:11:29;;;;;;;4.25;2.30;;;;;;;12.82;92.13;101381.09;5250812;28;20036;-81
2021/10/13 11:14:06;;;;;;;6.13;3.55;;;;;;;12.78;91.97;101389.16;5251600;28;20024;-81
2021/10/13 11:16:40;;;;;;;6.78;2.80;;;;;;;12.87;91.24;101392.34;5249363;28;20027;-81
2021/10/13 11:19:13;;;;;;;5.22;2.83;;;;;;;12.75;91.20;101384.84;5250905;28;20020;-81
2021/10/13 11:21:44;;;;;;;5.50;2.05;;;;;;;12.48;91.26;101393.56;5251402;28;20028;-81
2021/10/13 11:24:16;;;;;;;6.85;2.38;;;;;;;12.44;92.24;101386.69;5248728;28;20046;-81
2021/10/13 11:26:47;;;;;;;7.90;3.53;;;;;;;12.45;92.37;101387.56;5244520;28;20021;-81
2021/10/13 11:29:20;;;;;;;9.07;4.68;;;;;;;12.40;92.17;101382.44;5248262;28;20084;-81
2021/10/13 11:32:04;;;;;;;5.75;2.20;;;;;;;12.47;91.19;101383.97;5250535;28;20035;-81
2021/10/13 11:34:34;;;;;;;4.80;2.63;;;;;;;12.48;89.73;101396.16;5245210;28;20075;-81
2021/10/13 11:37:05;;;;;;;4.05;1.90;;;;;;;12.51;91.51;101385.63;5254697;28;20450;-81
2021/10/13 11:39:38;;;;;;;7.03;1.83;;;;;;;12.74;90.61;101387.50;5253056;28;20017;-81
2021/10/13 11:42:13;;;;;;;5.97;1.60;;;;;;;12.90;89.73;101390.44;5251446;28;20032;-81
2021/10/13 11:44:49;;;;;;;4.15;1.80;;;;;;;13.03;90.18;101380.47;5248459;28;20858;-81
2021/10/13 11:47:33;;;;;;;4.38;2.17;;;;;;;13.09;87.88;101380.25;5245548;28;20028;-81